Aérodrome :







RETROUVEZ-NOUS SUR...

 
LOGIN :

S'inscrire | Disclaimer

   EN    FR    IT 

 









Légende :    VFR   VFR Marginal   IFR   IFR Intensif   IFR Très Intensif
Visi : 
Plafond : 
>= 8 km
>= 3000ft
5 à 8 km
1000 à 3000 ft
1500m à 5 km
500 à 1000 ft
800 à 1500m
200 à 500 ft
< 800m
< 200 ft
Symboles :   Orages  Brouillard  Fortes neiges  Fortes précipitations  Vent > 20 kt






- Altitude de l'aérodrome : 244 ft
- Code IATA : YQB


CYQB - Quebec - Jean Lesage Int.

DERNIER METAR :
  • 082200Z 24007KT 20SM FEW040CB FEW300 29/20 A2982 RMK CB1CI1 DIST CB E SLP099 DENSITY ALT 2100FT

METARs EXPIRÉS :
  • 082100Z 25008KT 15SM SCT037 SCT300 29/20 A2981 RMK CU2CI2 DIST CB NE SLP097 DENSITY ALT 2100FT
  • 082000Z 22010KT 15SM SCT040 SCT300 29/20 A2983 RMK CU3CI1 DIST CB NE SLP103 DENSITY ALT 2000FT

TAF TAF CYQB
Valide du 08 à 18h jusqu'au 09 à 18h UTC


081738Z 0818/0918 23008KT P6SM FEW015 BKN080
TEMPO 0818/0903 P6SM -SHRA BKN015 OVC080
PROB30 0818/0901 2SM TSRA BR BKN008 OVC050CB
FM090300 27005KT P6SM SCT050
PROB30 0903/0912 3/4SM BR BKN002
FM091200 26005KT P6SM SCT007 BKN080
FM091500 22007KT P6SM FEW015 SCT080 RMK NXT FCST BY 090000Z
ATIS : ENG : +1 418-871-6893 FRA : +1 418-871-6895
FIR CZUL / Amérique du Nord



MET'MAP, la Météo Aéronautique d'un coup d'oeil ! - Copyright ORBIFLY Décembre 2007 - Disclaimer

ORBIFLY MET'MAP TEAM :

Programmation & Développement : Alexandra Zaïnal
Sur une idée originale de : Baudouin d'Aumeries
Assistance à la programmation : Marc-Olivier Méhu
Soutien technique & logistique : Manuel Goepfert

Contact : metmap@orbifly.com




SOURCES & CREDITS :

   NOAA